EHAM/AMS METAR and TAF weather

Enter ICAO airport designator
Station Type Date Time Source
EHAM METAR 2018/12/11 00:55 UTC NOAA

EHAM 110055Z 32008KT 9999 FEW028 05/02 Q1023 NOSIG


Station Type Date Time Source
EHAM Decoded METAR 2018/12/11 00:55 UTC NOAA

Amsterdam Airport Schiphol, Netherlands (EHAM) 52-18N 004-46E -2M
Dec 10, 2018 - 07:55 PM EST / 2018.12.11 0055 UTC
Wind: from the NW (320 degrees) at 9 MPH (8 KT):0
Visibility: greater than 7 mile(s):0
Sky conditions: mostly clear
Temperature: 41 F (5 C)
Dew Point: 35 F (2 C)
Relative Humidity: 80%
Pressure (altimeter): 30.21 in. Hg (1023 hPa)
ob: EHAM 110055Z 32008KT 9999 FEW028 05/02 Q1023 NOSIG
cycle: 1

Station Type Date Time Source
EHAM TAF 2018/12/10 18:27 UTC NOAA

TAF TAF EHAM 101700Z 1018/1124 31014KT 9999 SCT030 PROB30
TEMPO 1018/1106 7000 -SHRA FEW025TCU
BECMG 1100/1103 33009KT
BECMG 1115/1118 VRB03KT


Example: see airport list